sensor_id;sensor_type;location;lat;lon;timestamp;temperature;humidity
59311;DHT22;45078;51.654;21.250;2024-01-16T00:02:24;-1.00;99.90
59311;DHT22;45078;51.654;21.250;2024-01-16T00:04:50;-1.00;99.90
59311;DHT22;45078;51.654;21.250;2024-01-16T00:07:15;-1.00;99.90
59311;DHT22;45078;51.654;21.250;2024-01-16T00:09:41;-1.00;99.90
59311;DHT22;45078;51.654;21.250;2024-01-16T00:12:07;-1.00;99.90
59311;DHT22;45078;51.654;21.250;2024-01-16T00:14:36;-1.00;99.90
59311;DHT22;45078;51.654;21.250;2024-01-16T00:17:02;-1.10;99.90
59311;DHT22;45078;51.654;21.250;2024-01-16T00:19:28;-1.10;99.90
59311;DHT22;45078;51.654;21.250;2024-01-16T00:21:53;-1.10;99.90
59311;DHT22;45078;51.654;21.250;2024-01-16T00:24:19;-1.10;99.90
59311;DHT22;45078;51.654;21.250;2024-01-16T00:26:44;-1.10;99.90
59311;DHT22;45078;51.654;21.250;2024-01-16T00:29:11;-1.10;99.90
59311;DHT22;45078;51.654;21.250;2024-01-16T00:31:41;-1.20;99.90
59311;DHT22;45078;51.654;21.250;2024-01-16T00:34:06;-1.20;99.90
59311;DHT22;45078;51.654;21.250;2024-01-16T00:36:32;-1.20;99.90
59311;DHT22;45078;51.654;21.250;2024-01-16T00:38:58;-1.30;99.90
59311;DHT22;45078;51.654;21.250;2024-01-16T00:41:24;-1.30;99.90
59311;DHT22;45078;51.654;21.250;2024-01-16T00:43:49;-1.30;99.90
59311;DHT22;45078;51.654;21.250;2024-01-16T00:46:15;-1.40;99.90
59311;DHT22;45078;51.654;21.250;2024-01-16T00:48:40;-1.40;99.90
59311;DHT22;45078;51.654;21.250;2024-01-16T00:51:06;-1.40;99.90
59311;DHT22;45078;51.654;21.250;2024-01-16T00:53:32;-1.40;99.90
59311;DHT22;45078;51.654;21.250;2024-01-16T00:55:57;-1.40;99.90
59311;DHT22;45078;51.654;21.250;2024-01-16T00:58:24;-1.40;99.90
59311;DHT22;45078;51.654;21.250;2024-01-16T01:00:49;-1.40;99.90
59311;DHT22;45078;51.654;21.250;2024-01-16T01:03:15;-1.40;99.90
59311;DHT22;45078;51.654;21.250;2024-01-16T01:05:41;-1.40;99.90
59311;DHT22;45078;51.654;21.250;2024-01-16T01:08:07;-1.40;99.90
59311;DHT22;45078;51.654;21.250;2024-01-16T01:10:32;-1.40;99.90
59311;DHT22;45078;51.654;21.250;2024-01-16T01:12:58;-1.40;99.90
59311;DHT22;45078;51.654;21.250;2024-01-16T01:15:24;-1.50;99.90
59311;DHT22;45078;51.654;21.250;2024-01-16T01:17:49;-1.40;99.90
59311;DHT22;45078;51.654;21.250;2024-01-16T01:20:17;-1.40;99.90
59311;DHT22;45078;51.654;21.250;2024-01-16T01:22:43;-1.40;99.90
59311;DHT22;45078;51.654;21.250;2024-01-16T01:25:10;-1.40;99.90
59311;DHT22;45078;51.654;21.250;2024-01-16T01:27:36;-1.50;99.90
59311;DHT22;45078;51.654;21.250;2024-01-16T01:30:01;-1.50;99.90
59311;DHT22;45078;51.654;21.250;2024-01-16T01:32:27;-1.50;99.90
59311;DHT22;45078;51.654;21.250;2024-01-16T01:34:53;-1.50;99.90
59311;DHT22;45078;51.654;21.250;2024-01-16T01:37:18;-1.50;99.90
59311;DHT22;45078;51.654;21.250;2024-01-16T01:39:44;-1.50;99.90
59311;DHT22;45078;51.654;21.250;2024-01-16T01:42:09;-1.50;99.90
59311;DHT22;45078;51.654;21.250;2024-01-16T01:44:35;-1.50;99.90
59311;DHT22;45078;51.654;21.250;2024-01-16T01:47:01;-1.50;99.90
59311;DHT22;45078;51.654;21.250;2024-01-16T01:49:27;-1.50;99.90
59311;DHT22;45078;51.654;21.250;2024-01-16T01:51:54;-1.50;99.90
59311;DHT22;45078;51.654;21.250;2024-01-16T01:54:20;-1.50;99.90
59311;DHT22;45078;51.654;21.250;2024-01-16T01:56:48;-1.50;99.90
59311;DHT22;45078;51.654;21.250;2024-01-16T01:59:14;-1.50;99.90
59311;DHT22;45078;51.654;21.250;2024-01-16T02:01:45;-1.50;99.90
59311;DHT22;45078;51.654;21.250;2024-01-16T02:04:13;-1.50;99.90
59311;DHT22;45078;51.654;21.250;2024-01-16T02:06:39;-1.50;99.90
59311;DHT22;45078;51.654;21.250;2024-01-16T02:09:05;-1.50;99.90
59311;DHT22;45078;51.654;21.250;2024-01-16T02:11:32;-1.50;99.90
59311;DHT22;45078;51.654;21.250;2024-01-16T02:13:58;-1.50;99.90
59311;DHT22;45078;51.654;21.250;2024-01-16T02:16:24;-1.60;99.90
59311;DHT22;45078;51.654;21.250;2024-01-16T02:18:50;-1.60;99.90
59311;DHT22;45078;51.654;21.250;2024-01-16T02:21:28;-1.60;99.90
59311;DHT22;45078;51.654;21.250;2024-01-16T02:23:54;-1.60;99.90
59311;DHT22;45078;51.654;21.250;2024-01-16T02:26:19;-1.60;99.90
59311;DHT22;45078;51.654;21.250;2024-01-16T02:28:45;-1.60;99.90
59311;DHT22;45078;51.654;21.250;2024-01-16T02:31:11;-1.60;99.90
59311;DHT22;45078;51.654;21.250;2024-01-16T02:33:37;-1.70;99.90
59311;DHT22;45078;51.654;21.250;2024-01-16T02:36:03;-1.70;99.90
59311;DHT22;45078;51.654;21.250;2024-01-16T02:38:29;-1.70;99.90
59311;DHT22;45078;51.654;21.250;2024-01-16T02:40:55;-1.60;99.90
59311;DHT22;45078;51.654;21.250;2024-01-16T02:43:21;-1.70;99.90
59311;DHT22;45078;51.654;21.250;2024-01-16T02:45:46;-1.70;99.90
59311;DHT22;45078;51.654;21.250;2024-01-16T02:48:13;-1.70;99.90
59311;DHT22;45078;51.654;21.250;2024-01-16T02:50:38;-1.70;99.90
59311;DHT22;45078;51.654;21.250;2024-01-16T02:53:04;-1.80;99.90
59311;DHT22;45078;51.654;21.250;2024-01-16T02:55:29;-1.80;99.90
59311;DHT22;45078;51.654;21.250;2024-01-16T02:57:55;-1.80;99.90
59311;DHT22;45078;51.654;21.250;2024-01-16T03:00:20;-1.90;99.90
59311;DHT22;45078;51.654;21.250;2024-01-16T03:02:48;-2.00;99.90
59311;DHT22;45078;51.654;21.250;2024-01-16T03:05:14;-2.00;99.90
59311;DHT22;45078;51.654;21.250;2024-01-16T03:07:40;-2.00;99.90
59311;DHT22;45078;51.654;21.250;2024-01-16T03:10:06;-2.10;99.90
59311;DHT22;45078;51.654;21.250;2024-01-16T03:12:32;-2.10;99.90
59311;DHT22;45078;51.654;21.250;2024-01-16T03:14:58;-2.00;99.90
59311;DHT22;45078;51.654;21.250;2024-01-16T03:17:24;-2.10;99.90
59311;DHT22;45078;51.654;21.250;2024-01-16T03:19:49;-2.10;99.90
59311;DHT22;45078;51.654;21.250;2024-01-16T03:22:15;-2.10;99.90
59311;DHT22;45078;51.654;21.250;2024-01-16T03:24:40;-2.10;99.90
59311;DHT22;45078;51.654;21.250;2024-01-16T03:27:06;-2.20;99.90
59311;DHT22;45078;51.654;21.250;2024-01-16T03:29:31;-2.10;99.90
59311;DHT22;45078;51.654;21.250;2024-01-16T03:31:59;-2.20;99.90
59311;DHT22;45078;51.654;21.250;2024-01-16T03:34:24;-2.20;99.90
59311;DHT22;45078;51.654;21.250;2024-01-16T03:36:50;-2.10;99.90
59311;DHT22;45078;51.654;21.250;2024-01-16T03:39:16;-2.10;99.90
59311;DHT22;45078;51.654;21.250;2024-01-16T03:41:41;-2.10;99.90
59311;DHT22;45078;51.654;21.250;2024-01-16T03:44:07;-2.10;99.90
59311;DHT22;45078;51.654;21.250;2024-01-16T03:46:32;-2.10;99.90
59311;DHT22;45078;51.654;21.250;2024-01-16T03:48:58;-2.10;99.90
59311;DHT22;45078;51.654;21.250;2024-01-16T03:51:23;-2.20;99.90
59311;DHT22;45078;51.654;21.250;2024-01-16T03:53:49;-2.20;99.90
59311;DHT22;45078;51.654;21.250;2024-01-16T03:56:16;-2.20;99.90
59311;DHT22;45078;51.654;21.250;2024-01-16T03:58:42;-2.30;99.90
59311;DHT22;45078;51.654;21.250;2024-01-16T04:01:08;-2.20;99.90
59311;DHT22;45078;51.654;21.250;2024-01-16T04:03:33;-2.30;99.90
59311;DHT22;45078;51.654;21.250;2024-01-16T04:06:00;-2.30;99.90
59311;DHT22;45078;51.654;21.250;2024-01-16T04:08:26;-2.30;99.90
59311;DHT22;45078;51.654;21.250;2024-01-16T04:10:51;-2.40;99.90
59311;DHT22;45078;51.654;21.250;2024-01-16T04:13:17;-2.40;99.90
59311;DHT22;45078;51.654;21.250;2024-01-16T04:15:43;-2.50;99.90
59311;DHT22;45078;51.654;21.250;2024-01-16T04:18:09;-2.60;99.90
59311;DHT22;45078;51.654;21.250;2024-01-16T04:20:34;-2.60;99.90
59311;DHT22;45078;51.654;21.250;2024-01-16T04:23:00;-2.60;99.90
59311;DHT22;45078;51.654;21.250;2024-01-16T04:25:26;-2.70;99.90
59311;DHT22;45078;51.654;21.250;2024-01-16T04:27:51;-2.70;99.90
59311;DHT22;45078;51.654;21.250;2024-01-16T04:30:17;-2.70;99.90
59311;DHT22;45078;51.654;21.250;2024-01-16T04:32:45;-2.70;99.90
59311;DHT22;45078;51.654;21.250;2024-01-16T04:35:11;-2.70;99.90
59311;DHT22;45078;51.654;21.250;2024-01-16T04:37:36;-2.70;99.90
59311;DHT22;45078;51.654;21.250;2024-01-16T04:40:02;-2.70;99.90
59311;DHT22;45078;51.654;21.250;2024-01-16T04:42:30;-2.70;99.90
59311;DHT22;45078;51.654;21.250;2024-01-16T04:44:56;-2.80;99.90
59311;DHT22;45078;51.654;21.250;2024-01-16T04:47:22;-2.80;99.90
59311;DHT22;45078;51.654;21.250;2024-01-16T04:49:47;-2.90;99.90
59311;DHT22;45078;51.654;21.250;2024-01-16T04:52:13;-2.90;99.90
59311;DHT22;45078;51.654;21.250;2024-01-16T04:54:39;-3.00;99.90
59311;DHT22;45078;51.654;21.250;2024-01-16T04:57:04;-3.00;99.90
59311;DHT22;45078;51.654;21.250;2024-01-16T04:59:30;-3.00;99.90
59311;DHT22;45078;51.654;21.250;2024-01-16T05:01:56;-3.10;99.90
59311;DHT22;45078;51.654;21.250;2024-01-16T05:04:21;-3.10;99.90
59311;DHT22;45078;51.654;21.250;2024-01-16T05:06:52;-3.20;99.90
59311;DHT22;45078;51.654;21.250;2024-01-16T05:09:18;-3.20;99.90
59311;DHT22;45078;51.654;21.250;2024-01-16T05:11:46;-3.20;99.90
59311;DHT22;45078;51.654;21.250;2024-01-16T05:14:12;-3.30;99.90
59311;DHT22;45078;51.654;21.250;2024-01-16T05:16:37;-3.30;99.90
59311;DHT22;45078;51.654;21.250;2024-01-16T05:19:03;-3.40;99.90
59311;DHT22;45078;51.654;21.250;2024-01-16T05:21:29;-3.40;99.90
59311;DHT22;45078;51.654;21.250;2024-01-16T05:23:54;-3.40;99.90
59311;DHT22;45078;51.654;21.250;2024-01-16T05:26:20;-3.50;99.90
59311;DHT22;45078;51.654;21.250;2024-01-16T05:28:45;-3.50;99.90
59311;DHT22;45078;51.654;21.250;2024-01-16T05:31:11;-3.50;99.90
59311;DHT22;45078;51.654;21.250;2024-01-16T05:33:36;-3.50;99.90
59311;DHT22;45078;51.654;21.250;2024-01-16T05:36:02;-3.50;99.90
59311;DHT22;45078;51.654;21.250;2024-01-16T05:38:28;-3.50;99.90
59311;DHT22;45078;51.654;21.250;2024-01-16T05:40:53;-3.50;99.90
59311;DHT22;45078;51.654;21.250;2024-01-16T05:43:19;-3.50;99.90
59311;DHT22;45078;51.654;21.250;2024-01-16T05:45:44;-3.50;99.90
59311;DHT22;45078;51.654;21.250;2024-01-16T05:48:10;-3.50;99.90
59311;DHT22;45078;51.654;21.250;2024-01-16T05:50:36;-3.50;99.90
59311;DHT22;45078;51.654;21.250;2024-01-16T05:53:02;-3.50;99.90
59311;DHT22;45078;51.654;21.250;2024-01-16T05:55:28;-3.50;99.90
59311;DHT22;45078;51.654;21.250;2024-01-16T05:57:57;-3.40;99.90
59311;DHT22;45078;51.654;21.250;2024-01-16T06:00:24;-3.40;99.90
59311;DHT22;45078;51.654;21.250;2024-01-16T06:02:50;-3.40;99.90
59311;DHT22;45078;51.654;21.250;2024-01-16T06:05:16;-3.40;99.90
59311;DHT22;45078;51.654;21.250;2024-01-16T06:07:41;-3.50;99.90
59311;DHT22;45078;51.654;21.250;2024-01-16T06:10:07;-3.40;99.90
59311;DHT22;45078;51.654;21.250;2024-01-16T06:12:34;-3.50;99.90
59311;DHT22;45078;51.654;21.250;2024-01-16T06:15:00;-3.40;99.90
59311;DHT22;45078;51.654;21.250;2024-01-16T06:17:25;-3.40;99.90
59311;DHT22;45078;51.654;21.250;2024-01-16T06:19:51;-3.50;99.90
59311;DHT22;45078;51.654;21.250;2024-01-16T06:22:17;-3.50;99.90
59311;DHT22;45078;51.654;21.250;2024-01-16T06:24:42;-3.50;99.90
59311;DHT22;45078;51.654;21.250;2024-01-16T06:27:08;-3.50;99.90
59311;DHT22;45078;51.654;21.250;2024-01-16T06:29:33;-3.50;99.90
59311;DHT22;45078;51.654;21.250;2024-01-16T06:31:59;-3.50;99.90
59311;DHT22;45078;51.654;21.250;2024-01-16T06:34:25;-3.60;99.90
59311;DHT22;45078;51.654;21.250;2024-01-16T06:36:50;-3.50;99.90
59311;DHT22;45078;51.654;21.250;2024-01-16T06:39:16;-3.60;99.90
59311;DHT22;45078;51.654;21.250;2024-01-16T06:41:41;-3.60;99.90
59311;DHT22;45078;51.654;21.250;2024-01-16T06:44:07;-3.60;99.90
59311;DHT22;45078;51.654;21.250;2024-01-16T06:46:33;-3.60;99.90
59311;DHT22;45078;51.654;21.250;2024-01-16T06:48:59;-3.50;99.90
59311;DHT22;45078;51.654;21.250;2024-01-16T06:51:24;-3.60;99.90
59311;DHT22;45078;51.654;21.250;2024-01-16T06:53:50;-3.60;99.90
59311;DHT22;45078;51.654;21.250;2024-01-16T06:56:15;-3.70;99.90
59311;DHT22;45078;51.654;21.250;2024-01-16T06:58:41;-3.60;99.90
59311;DHT22;45078;51.654;21.250;2024-01-16T07:01:06;-3.60;99.90
59311;DHT22;45078;51.654;21.250;2024-01-16T07:03:34;-3.60;99.90
59311;DHT22;45078;51.654;21.250;2024-01-16T07:05:59;-3.50;99.90
59311;DHT22;45078;51.654;21.250;2024-01-16T07:08:25;-3.50;99.90
59311;DHT22;45078;51.654;21.250;2024-01-16T07:10:51;-3.50;99.90
59311;DHT22;45078;51.654;21.250;2024-01-16T07:13:16;-3.50;99.90
59311;DHT22;45078;51.654;21.250;2024-01-16T07:15:42;-3.50;99.90
59311;DHT22;45078;51.654;21.250;2024-01-16T07:18:07;-3.40;99.90
59311;DHT22;45078;51.654;21.250;2024-01-16T07:20:33;-3.40;99.90
59311;DHT22;45078;51.654;21.250;2024-01-16T07:22:59;-3.40;99.90
59311;DHT22;45078;51.654;21.250;2024-01-16T07:25:24;-3.40;99.90
59311;DHT22;45078;51.654;21.250;2024-01-16T07:27:50;-3.40;99.90
59311;DHT22;45078;51.654;21.250;2024-01-16T07:30:16;-3.40;99.90
59311;DHT22;45078;51.654;21.250;2024-01-16T07:32:41;-3.40;99.90
59311;DHT22;45078;51.654;21.250;2024-01-16T07:35:07;-3.40;99.90
59311;DHT22;45078;51.654;21.250;2024-01-16T07:37:33;-3.40;99.90
59311;DHT22;45078;51.654;21.250;2024-01-16T07:39:58;-3.40;99.90
59311;DHT22;45078;51.654;21.250;2024-01-16T07:42:24;-3.40;99.90
59311;DHT22;45078;51.654;21.250;2024-01-16T07:44:50;-3.40;99.90
59311;DHT22;45078;51.654;21.250;2024-01-16T07:47:16;-3.40;99.90
59311;DHT22;45078;51.654;21.250;2024-01-16T07:49:42;-3.40;99.90
59311;DHT22;45078;51.654;21.250;2024-01-16T07:52:08;-3.40;99.90
59311;DHT22;45078;51.654;21.250;2024-01-16T07:54:34;-3.40;99.90
59311;DHT22;45078;51.654;21.250;2024-01-16T07:56:59;-3.20;99.90
59311;DHT22;45078;51.654;21.250;2024-01-16T07:59:25;-3.20;99.90
59311;DHT22;45078;51.654;21.250;2024-01-16T08:01:52;-3.20;99.90
59311;DHT22;45078;51.654;21.250;2024-01-16T08:04:17;-3.10;99.90
59311;DHT22;45078;51.654;21.250;2024-01-16T08:06:43;-3.20;99.90
59311;DHT22;45078;51.654;21.250;2024-01-16T08:09:08;-3.10;99.90
59311;DHT22;45078;51.654;21.250;2024-01-16T08:11:36;-3.10;99.90
59311;DHT22;45078;51.654;21.250;2024-01-16T08:14:02;-3.10;99.90
59311;DHT22;45078;51.654;21.250;2024-01-16T08:16:28;-3.10;99.90
59311;DHT22;45078;51.654;21.250;2024-01-16T08:18:54;-3.10;99.90
59311;DHT22;45078;51.654;21.250;2024-01-16T08:21:19;-3.10;99.90
59311;DHT22;45078;51.654;21.250;2024-01-16T08:23:45;-3.20;99.90
59311;DHT22;45078;51.654;21.250;2024-01-16T08:26:10;-3.20;99.90
59311;DHT22;45078;51.654;21.250;2024-01-16T08:28:36;-3.20;99.90
59311;DHT22;45078;51.654;21.250;2024-01-16T08:31:01;-3.20;99.90
59311;DHT22;45078;51.654;21.250;2024-01-16T08:33:27;-3.20;99.90
59311;DHT22;45078;51.654;21.250;2024-01-16T08:35:53;-3.20;99.90
59311;DHT22;45078;51.654;21.250;2024-01-16T08:38:18;-3.20;99.90
59311;DHT22;45078;51.654;21.250;2024-01-16T08:40:44;-3.20;99.90
59311;DHT22;45078;51.654;21.250;2024-01-16T08:43:09;-3.10;99.90
59311;DHT22;45078;51.654;21.250;2024-01-16T08:45:35;-3.00;99.90
59311;DHT22;45078;51.654;21.250;2024-01-16T08:48:00;-2.80;99.90
59311;DHT22;45078;51.654;21.250;2024-01-16T08:50:26;-2.70;99.90
59311;DHT22;45078;51.654;21.250;2024-01-16T08:52:52;-2.70;99.90
59311;DHT22;45078;51.654;21.250;2024-01-16T08:55:17;-2.60;99.90
59311;DHT22;45078;51.654;21.250;2024-01-16T08:57:43;-1.70;99.90
59311;DHT22;45078;51.654;21.250;2024-01-16T09:00:09;-0.30;99.90
59311;DHT22;45078;51.654;21.250;2024-01-16T09:02:35;1.20;95.60
59311;DHT22;45078;51.654;21.250;2024-01-16T09:05:01;2.10;92.60
59311;DHT22;45078;51.654;21.250;2024-01-16T09:07:27;2.90;87.80
59311;DHT22;45078;51.654;21.250;2024-01-16T09:09:52;3.30;86.10
59311;DHT22;45078;51.654;21.250;2024-01-16T09:12:19;3.60;83.00
59311;DHT22;45078;51.654;21.250;2024-01-16T09:14:44;2.90;81.80
59311;DHT22;45078;51.654;21.250;2024-01-16T09:17:10;3.40;83.30
59311;DHT22;45078;51.654;21.250;2024-01-16T09:19:36;3.90;79.10
59311;DHT22;45078;51.654;21.250;2024-01-16T09:22:01;3.60;80.20
59311;DHT22;45078;51.654;21.250;2024-01-16T09:24:28;3.80;78.30
59311;DHT22;45078;51.654;21.250;2024-01-16T09:26:54;3.70;79.20
59311;DHT22;45078;51.654;21.250;2024-01-16T09:29:19;3.70;81.20
59311;DHT22;45078;51.654;21.250;2024-01-16T09:31:46;4.00;78.60
59311;DHT22;45078;51.654;21.250;2024-01-16T09:34:12;3.70;77.10
59311;DHT22;45078;51.654;21.250;2024-01-16T09:36:39;3.90;77.90
59311;DHT22;45078;51.654;21.250;2024-01-16T09:39:06;2.60;79.30
59311;DHT22;45078;51.654;21.250;2024-01-16T09:41:39;2.80;81.60
59311;DHT22;45078;51.654;21.250;2024-01-16T09:44:05;3.40;79.50
59311;DHT22;45078;51.654;21.250;2024-01-16T09:46:31;3.00;79.50
59311;DHT22;45078;51.654;21.250;2024-01-16T09:48:59;2.50;81.30
59311;DHT22;45078;51.654;21.250;2024-01-16T09:51:25;3.20;81.30
59311;DHT22;45078;51.654;21.250;2024-01-16T09:53:51;3.80;79.70
59311;DHT22;45078;51.654;21.250;2024-01-16T09:56:21;3.60;77.90
59311;DHT22;45078;51.654;21.250;2024-01-16T09:58:49;3.80;78.20
59311;DHT22;45078;51.654;21.250;2024-01-16T10:01:15;3.60;78.00
59311;DHT22;45078;51.654;21.250;2024-01-16T10:03:44;3.50;78.20
59311;DHT22;45078;51.654;21.250;2024-01-16T10:06:10;3.30;79.00
59311;DHT22;45078;51.654;21.250;2024-01-16T10:08:36;2.50;78.80
59311;DHT22;45078;51.654;21.250;2024-01-16T10:11:02;1.70;82.10
59311;DHT22;45078;51.654;21.250;2024-01-16T10:13:29;1.80;82.70
59311;DHT22;45078;51.654;21.250;2024-01-16T10:15:55;1.40;83.60
59311;DHT22;45078;51.654;21.250;2024-01-16T10:18:25;1.60;84.20
59311;DHT22;45078;51.654;21.250;2024-01-16T10:20:51;1.80;82.80
59311;DHT22;45078;51.654;21.250;2024-01-16T10:23:29;1.50;84.00
59311;DHT22;45078;51.654;21.250;2024-01-16T10:28:33;0.30;87.30
59311;DHT22;45078;51.654;21.250;2024-01-16T10:31:07;0.60;87.20
59311;DHT22;45078;51.654;21.250;2024-01-16T10:33:33;0.80;87.50
59311;DHT22;45078;51.654;21.250;2024-01-16T10:36:13;0.90;85.50
59311;DHT22;45078;51.654;21.250;2024-01-16T10:38:40;1.40;85.50
59311;DHT22;45078;51.654;21.250;2024-01-16T10:41:10;1.70;83.30
59311;DHT22;45078;51.654;21.250;2024-01-16T10:43:36;2.00;83.30
59311;DHT22;45078;51.654;21.250;2024-01-16T10:46:14;1.50;82.80
59311;DHT22;45078;51.654;21.250;2024-01-16T10:48:41;1.30;83.40
59311;DHT22;45078;51.654;21.250;2024-01-16T10:51:08;0.60;84.70
59311;DHT22;45078;51.654;21.250;2024-01-16T10:53:35;0.10;87.60
59311;DHT22;45078;51.654;21.250;2024-01-16T10:56:01;0.10;88.30
59311;DHT22;45078;51.654;21.250;2024-01-16T10:58:30;-0.10;88.50
59311;DHT22;45078;51.654;21.250;2024-01-16T11:01:00;-0.10;89.00
59311;DHT22;45078;51.654;21.250;2024-01-16T11:03:35;0.00;89.20
59311;DHT22;45078;51.654;21.250;2024-01-16T11:06:05;0.10;89.70
59311;DHT22;45078;51.654;21.250;2024-01-16T11:08:31;0.10;88.50
59311;DHT22;45078;51.654;21.250;2024-01-16T11:11:02;0.10;88.80
59311;DHT22;45078;51.654;21.250;2024-01-16T11:13:33;0.10;87.80
59311;DHT22;45078;51.654;21.250;2024-01-16T11:16:02;-0.10;87.00
59311;DHT22;45078;51.654;21.250;2024-01-16T11:18:31;-0.40;87.80
59311;DHT22;45078;51.654;21.250;2024-01-16T11:20:58;-0.60;88.50
59311;DHT22;45078;51.654;21.250;2024-01-16T11:23:24;-0.10;87.70
59311;DHT22;45078;51.654;21.250;2024-01-16T11:25:50;-0.10;86.80
59311;DHT22;45078;51.654;21.250;2024-01-16T11:28:15;0.60;85.80
59311;DHT22;45078;51.654;21.250;2024-01-16T11:30:42;0.30;84.10
59311;DHT22;45078;51.654;21.250;2024-01-16T11:35:58;0.90;83.70
59311;DHT22;45078;51.654;21.250;2024-01-16T11:38:25;1.10;82.50
59311;DHT22;45078;51.654;21.250;2024-01-16T11:40:52;1.40;80.80
59311;DHT22;45078;51.654;21.250;2024-01-16T11:43:34;1.40;80.70
59311;DHT22;45078;51.654;21.250;2024-01-16T11:46:07;1.60;80.70
59311;DHT22;45078;51.654;21.250;2024-01-16T11:48:33;1.30;81.00
59311;DHT22;45078;51.654;21.250;2024-01-16T11:50:59;1.00;81.30
59311;DHT22;45078;51.654;21.250;2024-01-16T11:53:35;0.60;82.10
59311;DHT22;45078;51.654;21.250;2024-01-16T11:59:01;0.60;83.20
59311;DHT22;45078;51.654;21.250;2024-01-16T12:01:35;0.90;82.70
59311;DHT22;45078;51.654;21.250;2024-01-16T12:04:07;0.50;82.40
59311;DHT22;45078;51.654;21.250;2024-01-16T12:06:37;-0.10;83.40
59311;DHT22;45078;51.654;21.250;2024-01-16T12:09:16;-0.30;85.00
59311;DHT22;45078;51.654;21.250;2024-01-16T12:11:43;-0.30;84.90
59311;DHT22;45078;51.654;21.250;2024-01-16T12:14:11;-0.20;85.10
59311;DHT22;45078;51.654;21.250;2024-01-16T12:16:37;-0.30;85.00
59311;DHT22;45078;51.654;21.250;2024-01-16T12:19:09;0.00;84.90
59311;DHT22;45078;51.654;21.250;2024-01-16T12:21:39;0.50;83.40
59311;DHT22;45078;51.654;21.250;2024-01-16T12:24:06;1.10;81.20
59311;DHT22;45078;51.654;21.250;2024-01-16T12:26:32;2.20;78.40
59311;DHT22;45078;51.654;21.250;2024-01-16T12:28:58;3.60;75.80
59311;DHT22;45078;51.654;21.250;2024-01-16T12:31:25;4.10;71.90
59311;DHT22;45078;51.654;21.250;2024-01-16T12:33:51;4.90;71.30
59311;DHT22;45078;51.654;21.250;2024-01-16T12:36:17;4.90;68.80
59311;DHT22;45078;51.654;21.250;2024-01-16T12:38:42;4.60;68.10
59311;DHT22;45078;51.654;21.250;2024-01-16T12:41:09;3.60;69.00
59311;DHT22;45078;51.654;21.250;2024-01-16T12:43:35;3.00;71.50
59311;DHT22;45078;51.654;21.250;2024-01-16T12:46:02;2.70;72.60
59311;DHT22;45078;51.654;21.250;2024-01-16T12:48:28;1.60;74.80
59311;DHT22;45078;51.654;21.250;2024-01-16T12:51:01;1.00;77.40
59311;DHT22;45078;51.654;21.250;2024-01-16T12:53:32;1.10;78.50
59311;DHT22;45078;51.654;21.250;2024-01-16T12:56:00;1.40;77.50
59311;DHT22;45078;51.654;21.250;2024-01-16T12:58:35;1.30;77.10
59311;DHT22;45078;51.654;21.250;2024-01-16T13:01:24;0.70;77.60
59311;DHT22;45078;51.654;21.250;2024-01-16T13:03:50;0.40;79.80
59311;DHT22;45078;51.654;21.250;2024-01-16T13:06:23;0.70;80.30
59311;DHT22;45078;51.654;21.250;2024-01-16T13:08:51;0.70;80.10
59311;DHT22;45078;51.654;21.250;2024-01-16T13:11:29;0.40;79.90
59311;DHT22;45078;51.654;21.250;2024-01-16T13:14:01;0.00;81.40
59311;DHT22;45078;51.654;21.250;2024-01-16T13:16:29;-0.10;81.90
59311;DHT22;45078;51.654;21.250;2024-01-16T13:19:01;-0.30;82.90
59311;DHT22;45078;51.654;21.250;2024-01-16T13:21:29;-0.70;84.00
59311;DHT22;45078;51.654;21.250;2024-01-16T13:23:54;-1.00;84.90
59311;DHT22;45078;51.654;21.250;2024-01-16T13:26:20;-1.30;86.20
59311;DHT22;45078;51.654;21.250;2024-01-16T13:28:46;-1.40;87.20
59311;DHT22;45078;51.654;21.250;2024-01-16T13:31:13;-1.70;88.50
59311;DHT22;45078;51.654;21.250;2024-01-16T13:33:38;-1.80;89.60
59311;DHT22;45078;51.654;21.250;2024-01-16T13:36:04;-1.90;90.00
59311;DHT22;45078;51.654;21.250;2024-01-16T13:38:30;-1.90;90.10
59311;DHT22;45078;51.654;21.250;2024-01-16T13:40:55;-1.90;90.20
59311;DHT22;45078;51.654;21.250;2024-01-16T13:43:21;-1.80;90.20
59311;DHT22;45078;51.654;21.250;2024-01-16T13:45:47;-1.70;89.70
59311;DHT22;45078;51.654;21.250;2024-01-16T13:48:17;-1.70;90.10
59311;DHT22;45078;51.654;21.250;2024-01-16T13:50:43;-1.80;90.10
59311;DHT22;45078;51.654;21.250;2024-01-16T13:53:10;-1.70;90.20
59311;DHT22;45078;51.654;21.250;2024-01-16T13:55:38;-1.70;90.40
59311;DHT22;45078;51.654;21.250;2024-01-16T13:58:04;-1.60;89.80
59311;DHT22;45078;51.654;21.250;2024-01-16T14:00:30;-1.60;88.90
59311;DHT22;45078;51.654;21.250;2024-01-16T14:02:56;-1.80;89.50
59311;DHT22;45078;51.654;21.250;2024-01-16T14:05:21;-1.70;89.50
59311;DHT22;45078;51.654;21.250;2024-01-16T14:07:49;-1.50;89.50
59311;DHT22;45078;51.654;21.250;2024-01-16T14:10:19;-1.30;88.50
59311;DHT22;45078;51.654;21.250;2024-01-16T14:12:46;-1.20;88.00
59311;DHT22;45078;51.654;21.250;2024-01-16T14:15:12;-0.90;86.80
59311;DHT22;45078;51.654;21.250;2024-01-16T14:17:52;-0.90;86.70
59311;DHT22;45078;51.654;21.250;2024-01-16T14:20:19;-1.30;86.90
59311;DHT22;45078;51.654;21.250;2024-01-16T14:22:48;-1.70;88.30
59311;DHT22;45078;51.654;21.250;2024-01-16T14:25:14;-2.10;90.00
59311;DHT22;45078;51.654;21.250;2024-01-16T14:28:05;-2.30;90.50
59311;DHT22;45078;51.654;21.250;2024-01-16T14:30:33;-2.50;91.10
59311;DHT22;45078;51.654;21.250;2024-01-16T14:32:59;-2.60;91.50
59311;DHT22;45078;51.654;21.250;2024-01-16T14:35:26;-2.70;91.70
59311;DHT22;45078;51.654;21.250;2024-01-16T14:37:52;-2.80;91.90
59311;DHT22;45078;51.654;21.250;2024-01-16T14:40:18;-2.70;92.20
59311;DHT22;45078;51.654;21.250;2024-01-16T14:42:51;-2.70;92.20
59311;DHT22;45078;51.654;21.250;2024-01-16T14:45:23;-2.90;92.20
59311;DHT22;45078;51.654;21.250;2024-01-16T14:47:49;-3.10;92.50
59311;DHT22;45078;51.654;21.250;2024-01-16T14:50:16;-3.10;92.60
59311;DHT22;45078;51.654;21.250;2024-01-16T14:52:46;-3.20;92.50
59311;DHT22;45078;51.654;21.250;2024-01-16T14:55:12;-3.40;92.80
59311;DHT22;45078;51.654;21.250;2024-01-16T14:57:38;-3.50;93.20
59311;DHT22;45078;51.654;21.250;2024-01-16T15:00:18;-3.70;93.30
59311;DHT22;45078;51.654;21.250;2024-01-16T15:02:52;-3.70;93.20
59311;DHT22;45078;51.654;21.250;2024-01-16T15:05:19;-3.80;93.20
59311;DHT22;45078;51.654;21.250;2024-01-16T15:07:46;-3.90;94.00
59311;DHT22;45078;51.654;21.250;2024-01-16T15:10:11;-4.10;94.50
59311;DHT22;45078;51.654;21.250;2024-01-16T15:12:41;-4.10;94.90
59311;DHT22;45078;51.654;21.250;2024-01-16T15:15:07;-4.30;95.50
59311;DHT22;45078;51.654;21.250;2024-01-16T15:17:33;-4.50;95.30
59311;DHT22;45078;51.654;21.250;2024-01-16T15:19:59;-4.60;95.60
59311;DHT22;45078;51.654;21.250;2024-01-16T15:22:25;-4.60;96.90
59311;DHT22;45078;51.654;21.250;2024-01-16T15:24:50;-4.60;96.60
59311;DHT22;45078;51.654;21.250;2024-01-16T15:27:16;-4.80;96.40